sensor_id;sensor_type;location;lat;lon;timestamp;P1;durP1;ratioP1;P2;durP2;ratioP2
7160;SDS011;3622;53.576;9.978;2022-12-10T00:00:36;57.50;;;19.93;;
7160;SDS011;3622;53.576;9.978;2022-12-10T00:03:02;55.43;;;19.80;;
7160;SDS011;3622;53.576;9.978;2022-12-10T00:05:28;49.80;;;18.50;;
7160;SDS011;3622;53.576;9.978;2022-12-10T00:07:54;53.63;;;18.03;;
7160;SDS011;3622;53.576;9.978;2022-12-10T00:10:21;50.47;;;18.90;;
7160;SDS011;3622;53.576;9.978;2022-12-10T00:12:46;46.97;;;18.43;;
7160;SDS011;3622;53.576;9.978;2022-12-10T00:15:12;45.57;;;17.97;;
7160;SDS011;3622;53.576;9.978;2022-12-10T00:17:38;49.37;;;17.57;;
7160;SDS011;3622;53.576;9.978;2022-12-10T00:20:04;49.33;;;19.10;;
7160;SDS011;3622;53.576;9.978;2022-12-10T00:22:31;43.10;;;17.70;;
7160;SDS011;3622;53.576;9.978;2022-12-10T00:24:57;41.87;;;17.30;;
7160;SDS011;3622;53.576;9.978;2022-12-10T00:27:22;49.17;;;18.07;;
7160;SDS011;3622;53.576;9.978;2022-12-10T00:29:48;48.50;;;18.60;;
7160;SDS011;3622;53.576;9.978;2022-12-10T00:32:14;44.13;;;17.10;;
7160;SDS011;3622;53.576;9.978;2022-12-10T00:34:40;41.40;;;16.33;;
7160;SDS011;3622;53.576;9.978;2022-12-10T00:37:06;38.50;;;16.07;;
7160;SDS011;3622;53.576;9.978;2022-12-10T00:39:32;41.93;;;16.03;;
7160;SDS011;3622;53.576;9.978;2022-12-10T00:41:58;50.10;;;17.73;;
7160;SDS011;3622;53.576;9.978;2022-12-10T00:44:24;46.27;;;16.20;;
7160;SDS011;3622;53.576;9.978;2022-12-10T00:46:50;40.00;;;15.83;;
7160;SDS011;3622;53.576;9.978;2022-12-10T00:49:16;33.47;;;14.27;;
7160;SDS011;3622;53.576;9.978;2022-12-10T00:51:42;42.03;;;16.80;;
7160;SDS011;3622;53.576;9.978;2022-12-10T00:54:08;36.10;;;14.67;;
7160;SDS011;3622;53.576;9.978;2022-12-10T00:56:36;42.23;;;16.37;;
7160;SDS011;3622;53.576;9.978;2022-12-10T00:59:02;46.40;;;16.67;;
7160;SDS011;3622;53.576;9.978;2022-12-10T01:01:38;35.67;;;14.83;;
7160;SDS011;3622;53.576;9.978;2022-12-10T01:04:08;39.33;;;15.10;;
7160;SDS011;3622;53.576;9.978;2022-12-10T01:06:36;38.40;;;14.83;;
7160;SDS011;3622;53.576;9.978;2022-12-10T01:09:06;42.20;;;15.67;;
7160;SDS011;3622;53.576;9.978;2022-12-10T01:11:33;36.70;;;14.90;;
7160;SDS011;3622;53.576;9.978;2022-12-10T01:14:00;36.73;;;14.67;;
7160;SDS011;3622;53.576;9.978;2022-12-10T01:16:26;35.53;;;13.63;;
7160;SDS011;3622;53.576;9.978;2022-12-10T01:18:53;38.30;;;14.20;;
7160;SDS011;3622;53.576;9.978;2022-12-10T01:21:19;35.27;;;13.67;;
7160;SDS011;3622;53.576;9.978;2022-12-10T01:23:46;27.53;;;12.60;;
7160;SDS011;3622;53.576;9.978;2022-12-10T01:26:14;28.30;;;13.20;;
7160;SDS011;3622;53.576;9.978;2022-12-10T01:28:40;33.40;;;14.00;;
7160;SDS011;3622;53.576;9.978;2022-12-10T01:31:09;33.90;;;14.70;;
7160;SDS011;3622;53.576;9.978;2022-12-10T01:33:35;42.13;;;14.10;;
7160;SDS011;3622;53.576;9.978;2022-12-10T01:36:06;33.37;;;13.53;;
7160;SDS011;3622;53.576;9.978;2022-12-10T01:38:32;31.90;;;13.40;;
7160;SDS011;3622;53.576;9.978;2022-12-10T01:40:59;25.10;;;11.90;;
7160;SDS011;3622;53.576;9.978;2022-12-10T01:43:25;29.73;;;12.03;;
7160;SDS011;3622;53.576;9.978;2022-12-10T01:45:51;31.07;;;12.40;;
7160;SDS011;3622;53.576;9.978;2022-12-10T01:48:17;30.30;;;13.40;;
7160;SDS011;3622;53.576;9.978;2022-12-10T01:50:43;28.60;;;11.43;;
7160;SDS011;3622;53.576;9.978;2022-12-10T01:53:09;33.20;;;14.20;;
7160;SDS011;3622;53.576;9.978;2022-12-10T01:55:46;24.13;;;11.37;;
7160;SDS011;3622;53.576;9.978;2022-12-10T01:58:14;22.10;;;11.37;;
7160;SDS011;3622;53.576;9.978;2022-12-10T02:01:04;27.20;;;12.10;;
7160;SDS011;3622;53.576;9.978;2022-12-10T02:06:21;26.60;;;11.93;;
7160;SDS011;3622;53.576;9.978;2022-12-10T02:08:54;29.43;;;12.70;;
7160;SDS011;3622;53.576;9.978;2022-12-10T02:11:42;23.53;;;11.33;;
7160;SDS011;3622;53.576;9.978;2022-12-10T02:14:17;24.00;;;10.60;;
7160;SDS011;3622;53.576;9.978;2022-12-10T02:16:51;22.83;;;10.90;;
7160;SDS011;3622;53.576;9.978;2022-12-10T02:19:24;19.80;;;9.73;;
7160;SDS011;3622;53.576;9.978;2022-12-10T02:21:52;23.40;;;8.97;;
7160;SDS011;3622;53.576;9.978;2022-12-10T02:24:21;28.90;;;12.10;;
7160;SDS011;3622;53.576;9.978;2022-12-10T02:29:23;23.10;;;10.73;;
7160;SDS011;3622;53.576;9.978;2022-12-10T02:31:56;23.93;;;11.13;;
7160;SDS011;3622;53.576;9.978;2022-12-10T02:34:23;23.03;;;10.77;;
7160;SDS011;3622;53.576;9.978;2022-12-10T02:36:50;25.23;;;10.67;;
7160;SDS011;3622;53.576;9.978;2022-12-10T02:39:18;21.10;;;9.97;;
7160;SDS011;3622;53.576;9.978;2022-12-10T02:41:52;24.53;;;11.03;;
7160;SDS011;3622;53.576;9.978;2022-12-10T02:44:19;22.47;;;9.37;;
7160;SDS011;3622;53.576;9.978;2022-12-10T02:46:45;21.60;;;11.70;;
7160;SDS011;3622;53.576;9.978;2022-12-10T02:49:13;19.00;;;9.80;;
7160;SDS011;3622;53.576;9.978;2022-12-10T02:51:40;18.17;;;9.50;;
7160;SDS011;3622;53.576;9.978;2022-12-10T02:54:07;22.50;;;10.93;;
7160;SDS011;3622;53.576;9.978;2022-12-10T02:56:53;20.07;;;9.80;;
7160;SDS011;3622;53.576;9.978;2022-12-10T03:01:50;17.60;;;9.27;;
7160;SDS011;3622;53.576;9.978;2022-12-10T03:04:25;17.60;;;8.93;;
7160;SDS011;3622;53.576;9.978;2022-12-10T03:06:56;16.67;;;8.93;;
7160;SDS011;3622;53.576;9.978;2022-12-10T03:09:25;15.80;;;8.97;;
7160;SDS011;3622;53.576;9.978;2022-12-10T03:11:57;15.93;;;7.00;;
7160;SDS011;3622;53.576;9.978;2022-12-10T03:14:30;15.43;;;7.80;;
7160;SDS011;3622;53.576;9.978;2022-12-10T03:16:57;14.17;;;7.50;;
7160;SDS011;3622;53.576;9.978;2022-12-10T03:19:26;13.50;;;6.83;;
7160;SDS011;3622;53.576;9.978;2022-12-10T03:21:53;14.03;;;7.63;;
7160;SDS011;3622;53.576;9.978;2022-12-10T03:24:20;16.53;;;7.93;;
7160;SDS011;3622;53.576;9.978;2022-12-10T03:26:47;15.80;;;7.80;;
7160;SDS011;3622;53.576;9.978;2022-12-10T03:29:15;22.13;;;8.23;;
7160;SDS011;3622;53.576;9.978;2022-12-10T03:31:43;12.90;;;7.23;;
7160;SDS011;3622;53.576;9.978;2022-12-10T03:34:10;12.03;;;7.10;;
7160;SDS011;3622;53.576;9.978;2022-12-10T03:36:36;16.13;;;7.93;;
7160;SDS011;3622;53.576;9.978;2022-12-10T03:39:03;14.13;;;7.87;;
7160;SDS011;3622;53.576;9.978;2022-12-10T03:41:30;15.97;;;7.73;;
7160;SDS011;3622;53.576;9.978;2022-12-10T03:43:56;14.87;;;7.90;;
7160;SDS011;3622;53.576;9.978;2022-12-10T03:46:24;13.00;;;8.13;;
7160;SDS011;3622;53.576;9.978;2022-12-10T03:48:50;17.83;;;8.10;;
7160;SDS011;3622;53.576;9.978;2022-12-10T03:51:16;13.40;;;7.87;;
7160;SDS011;3622;53.576;9.978;2022-12-10T03:53:42;12.13;;;6.63;;
7160;SDS011;3622;53.576;9.978;2022-12-10T03:56:08;12.40;;;6.90;;
7160;SDS011;3622;53.576;9.978;2022-12-10T03:58:34;11.73;;;6.63;;
7160;SDS011;3622;53.576;9.978;2022-12-10T04:01:01;13.17;;;7.20;;
7160;SDS011;3622;53.576;9.978;2022-12-10T04:03:27;10.80;;;6.90;;
7160;SDS011;3622;53.576;9.978;2022-12-10T04:05:53;12.30;;;6.07;;
7160;SDS011;3622;53.576;9.978;2022-12-10T04:08:19;12.57;;;7.37;;
7160;SDS011;3622;53.576;9.978;2022-12-10T04:10:45;11.90;;;6.83;;
7160;SDS011;3622;53.576;9.978;2022-12-10T04:13:10;12.17;;;6.60;;
7160;SDS011;3622;53.576;9.978;2022-12-10T04:15:56;11.30;;;7.23;;
7160;SDS011;3622;53.576;9.978;2022-12-10T04:18:41;11.20;;;6.80;;
7160;SDS011;3622;53.576;9.978;2022-12-10T04:21:07;13.30;;;6.93;;
7160;SDS011;3622;53.576;9.978;2022-12-10T04:23:51;13.00;;;7.10;;
7160;SDS011;3622;53.576;9.978;2022-12-10T04:26:36;11.57;;;7.27;;
7160;SDS011;3622;53.576;9.978;2022-12-10T04:29:18;12.90;;;7.47;;
7160;SDS011;3622;53.576;9.978;2022-12-10T04:31:44;9.30;;;6.30;;
7160;SDS011;3622;53.576;9.978;2022-12-10T04:34:10;12.83;;;7.47;;
7160;SDS011;3622;53.576;9.978;2022-12-10T04:36:36;10.80;;;6.40;;
7160;SDS011;3622;53.576;9.978;2022-12-10T04:39:02;12.73;;;6.47;;
7160;SDS011;3622;53.576;9.978;2022-12-10T04:41:28;10.17;;;6.27;;
7160;SDS011;3622;53.576;9.978;2022-12-10T04:43:54;10.23;;;6.60;;
7160;SDS011;3622;53.576;9.978;2022-12-10T04:46:20;12.90;;;6.90;;
7160;SDS011;3622;53.576;9.978;2022-12-10T04:48:46;11.97;;;6.63;;
7160;SDS011;3622;53.576;9.978;2022-12-10T04:51:12;12.73;;;7.10;;
7160;SDS011;3622;53.576;9.978;2022-12-10T04:53:38;9.40;;;6.57;;
7160;SDS011;3622;53.576;9.978;2022-12-10T04:56:04;12.77;;;7.13;;
7160;SDS011;3622;53.576;9.978;2022-12-10T04:58:31;11.53;;;7.10;;
7160;SDS011;3622;53.576;9.978;2022-12-10T05:01:03;9.73;;;6.73;;
7160;SDS011;3622;53.576;9.978;2022-12-10T05:03:30;10.60;;;6.37;;
7160;SDS011;3622;53.576;9.978;2022-12-10T05:05:59;13.90;;;7.30;;
7160;SDS011;3622;53.576;9.978;2022-12-10T05:08:25;14.20;;;7.97;;
7160;SDS011;3622;53.576;9.978;2022-12-10T05:10:51;14.27;;;7.70;;
7160;SDS011;3622;53.576;9.978;2022-12-10T05:13:17;13.87;;;7.80;;
7160;SDS011;3622;53.576;9.978;2022-12-10T05:15:43;15.40;;;7.97;;
7160;SDS011;3622;53.576;9.978;2022-12-10T05:18:09;13.00;;;7.77;;
7160;SDS011;3622;53.576;9.978;2022-12-10T05:20:35;12.50;;;6.77;;
7160;SDS011;3622;53.576;9.978;2022-12-10T05:23:01;11.30;;;7.20;;
7160;SDS011;3622;53.576;9.978;2022-12-10T05:25:45;11.10;;;7.87;;
7160;SDS011;3622;53.576;9.978;2022-12-10T05:28:21;10.67;;;6.57;;
7160;SDS011;3622;53.576;9.978;2022-12-10T05:30:47;10.47;;;6.60;;
7160;SDS011;3622;53.576;9.978;2022-12-10T05:33:13;14.70;;;7.37;;
7160;SDS011;3622;53.576;9.978;2022-12-10T05:35:39;13.40;;;7.83;;
7160;SDS011;3622;53.576;9.978;2022-12-10T05:38:05;14.77;;;7.67;;
7160;SDS011;3622;53.576;9.978;2022-12-10T05:40:34;14.87;;;6.90;;
7160;SDS011;3622;53.576;9.978;2022-12-10T05:43:00;16.70;;;9.10;;
7160;SDS011;3622;53.576;9.978;2022-12-10T05:45:26;13.27;;;7.83;;
7160;SDS011;3622;53.576;9.978;2022-12-10T05:47:52;12.77;;;6.43;;
7160;SDS011;3622;53.576;9.978;2022-12-10T05:50:18;15.83;;;8.40;;
7160;SDS011;3622;53.576;9.978;2022-12-10T05:52:44;13.30;;;7.83;;
7160;SDS011;3622;53.576;9.978;2022-12-10T05:55:10;15.93;;;8.33;;
7160;SDS011;3622;53.576;9.978;2022-12-10T05:57:36;10.83;;;6.80;;
7160;SDS011;3622;53.576;9.978;2022-12-10T06:00:03;11.47;;;6.70;;
7160;SDS011;3622;53.576;9.978;2022-12-10T06:02:32;14.40;;;7.67;;
7160;SDS011;3622;53.576;9.978;2022-12-10T06:04:58;14.67;;;8.20;;
7160;SDS011;3622;53.576;9.978;2022-12-10T06:07:24;15.63;;;8.33;;
7160;SDS011;3622;53.576;9.978;2022-12-10T06:09:50;11.77;;;7.10;;
7160;SDS011;3622;53.576;9.978;2022-12-10T06:12:16;11.13;;;7.03;;
7160;SDS011;3622;53.576;9.978;2022-12-10T06:14:42;14.90;;;8.50;;
7160;SDS011;3622;53.576;9.978;2022-12-10T06:17:08;15.23;;;8.30;;
7160;SDS011;3622;53.576;9.978;2022-12-10T06:19:34;11.10;;;7.07;;
7160;SDS011;3622;53.576;9.978;2022-12-10T06:22:00;11.37;;;7.03;;
7160;SDS011;3622;53.576;9.978;2022-12-10T06:24:26;14.17;;;7.73;;
7160;SDS011;3622;53.576;9.978;2022-12-10T06:26:52;12.30;;;7.77;;
7160;SDS011;3622;53.576;9.978;2022-12-10T06:29:18;13.70;;;8.30;;
7160;SDS011;3622;53.576;9.978;2022-12-10T06:31:44;12.77;;;8.07;;
7160;SDS011;3622;53.576;9.978;2022-12-10T06:34:10;15.10;;;8.80;;
7160;SDS011;3622;53.576;9.978;2022-12-10T06:36:36;17.33;;;9.17;;
7160;SDS011;3622;53.576;9.978;2022-12-10T06:39:03;16.20;;;8.80;;
7160;SDS011;3622;53.576;9.978;2022-12-10T06:41:29;14.50;;;8.53;;
7160;SDS011;3622;53.576;9.978;2022-12-10T06:43:56;13.63;;;7.50;;
7160;SDS011;3622;53.576;9.978;2022-12-10T06:46:25;14.73;;;8.50;;
7160;SDS011;3622;53.576;9.978;2022-12-10T06:48:52;13.87;;;8.47;;
7160;SDS011;3622;53.576;9.978;2022-12-10T06:51:18;11.67;;;7.30;;
7160;SDS011;3622;53.576;9.978;2022-12-10T06:53:45;11.33;;;7.37;;
7160;SDS011;3622;53.576;9.978;2022-12-10T06:56:12;11.93;;;6.80;;
7160;SDS011;3622;53.576;9.978;2022-12-10T06:58:38;14.93;;;8.90;;
7160;SDS011;3622;53.576;9.978;2022-12-10T07:01:08;13.07;;;7.57;;
7160;SDS011;3622;53.576;9.978;2022-12-10T07:03:34;14.90;;;8.40;;
7160;SDS011;3622;53.576;9.978;2022-12-10T07:06:01;13.30;;;7.90;;
7160;SDS011;3622;53.576;9.978;2022-12-10T07:08:27;12.47;;;7.87;;
7160;SDS011;3622;53.576;9.978;2022-12-10T07:10:53;14.10;;;8.20;;
7160;SDS011;3622;53.576;9.978;2022-12-10T07:13:20;13.50;;;8.30;;
7160;SDS011;3622;53.576;9.978;2022-12-10T07:15:46;13.03;;;8.37;;
7160;SDS011;3622;53.576;9.978;2022-12-10T07:18:12;11.97;;;7.87;;
7160;SDS011;3622;53.576;9.978;2022-12-10T07:20:38;11.57;;;7.87;;
7160;SDS011;3622;53.576;9.978;2022-12-10T07:23:04;13.30;;;8.57;;
7160;SDS011;3622;53.576;9.978;2022-12-10T07:25:30;14.67;;;7.97;;
7160;SDS011;3622;53.576;9.978;2022-12-10T07:27:56;15.73;;;8.73;;
7160;SDS011;3622;53.576;9.978;2022-12-10T07:30:22;14.77;;;8.57;;
7160;SDS011;3622;53.576;9.978;2022-12-10T07:32:48;20.10;;;9.10;;
7160;SDS011;3622;53.576;9.978;2022-12-10T07:35:14;14.60;;;9.17;;
7160;SDS011;3622;53.576;9.978;2022-12-10T07:37:40;13.70;;;7.87;;
7160;SDS011;3622;53.576;9.978;2022-12-10T07:40:06;10.07;;;7.30;;
7160;SDS011;3622;53.576;9.978;2022-12-10T07:42:32;12.17;;;7.77;;
7160;SDS011;3622;53.576;9.978;2022-12-10T07:44:58;16.03;;;8.70;;
7160;SDS011;3622;53.576;9.978;2022-12-10T07:47:24;14.00;;;7.60;;
7160;SDS011;3622;53.576;9.978;2022-12-10T07:49:50;14.30;;;7.60;;
7160;SDS011;3622;53.576;9.978;2022-12-10T07:52:16;13.67;;;8.67;;
7160;SDS011;3622;53.576;9.978;2022-12-10T07:54:42;12.10;;;7.40;;
7160;SDS011;3622;53.576;9.978;2022-12-10T07:57:08;14.03;;;8.20;;
7160;SDS011;3622;53.576;9.978;2022-12-10T07:59:34;13.80;;;8.03;;
7160;SDS011;3622;53.576;9.978;2022-12-10T08:02:00;14.20;;;8.53;;
7160;SDS011;3622;53.576;9.978;2022-12-10T08:04:29;15.97;;;8.70;;
7160;SDS011;3622;53.576;9.978;2022-12-10T08:06:55;16.97;;;8.10;;
7160;SDS011;3622;53.576;9.978;2022-12-10T08:09:22;11.87;;;8.10;;
7160;SDS011;3622;53.576;9.978;2022-12-10T08:11:48;17.67;;;9.60;;
7160;SDS011;3622;53.576;9.978;2022-12-10T08:14:15;13.23;;;8.00;;
7160;SDS011;3622;53.576;9.978;2022-12-10T08:16:41;13.60;;;8.60;;
7160;SDS011;3622;53.576;9.978;2022-12-10T08:19:08;12.70;;;7.93;;
7160;SDS011;3622;53.576;9.978;2022-12-10T08:21:34;11.67;;;8.10;;
7160;SDS011;3622;53.576;9.978;2022-12-10T08:24:00;13.33;;;8.10;;
7160;SDS011;3622;53.576;9.978;2022-12-10T08:26:28;14.80;;;8.53;;
7160;SDS011;3622;53.576;9.978;2022-12-10T08:28:54;14.60;;;8.60;;
7160;SDS011;3622;53.576;9.978;2022-12-10T08:31:20;17.83;;;8.83;;
7160;SDS011;3622;53.576;9.978;2022-12-10T08:33:47;15.47;;;8.27;;
7160;SDS011;3622;53.576;9.978;2022-12-10T08:36:14;15.40;;;8.10;;
7160;SDS011;3622;53.576;9.978;2022-12-10T08:38:41;15.37;;;8.87;;
7160;SDS011;3622;53.576;9.978;2022-12-10T08:43:33;15.67;;;8.93;;
7160;SDS011;3622;53.576;9.978;2022-12-10T08:45:59;18.37;;;10.00;;
7160;SDS011;3622;53.576;9.978;2022-12-10T08:48:25;19.87;;;9.90;;
7160;SDS011;3622;53.576;9.978;2022-12-10T08:50:51;16.83;;;9.20;;
7160;SDS011;3622;53.576;9.978;2022-12-10T08:53:17;16.73;;;9.60;;
7160;SDS011;3622;53.576;9.978;2022-12-10T08:55:43;17.00;;;10.43;;
7160;SDS011;3622;53.576;9.978;2022-12-10T08:58:09;13.33;;;8.30;;
7160;SDS011;3622;53.576;9.978;2022-12-10T09:00:35;24.40;;;8.83;;
7160;SDS011;3622;53.576;9.978;2022-12-10T09:03:02;15.20;;;8.57;;
7160;SDS011;3622;53.576;9.978;2022-12-10T09:05:28;16.53;;;9.50;;
7160;SDS011;3622;53.576;9.978;2022-12-10T09:07:54;15.10;;;8.77;;
7160;SDS011;3622;53.576;9.978;2022-12-10T09:10:20;15.40;;;8.50;;
7160;SDS011;3622;53.576;9.978;2022-12-10T09:12:47;15.37;;;8.40;;
7160;SDS011;3622;53.576;9.978;2022-12-10T09:15:13;15.67;;;8.60;;
7160;SDS011;3622;53.576;9.978;2022-12-10T09:17:39;15.83;;;8.60;;
7160;SDS011;3622;53.576;9.978;2022-12-10T09:20:05;16.83;;;9.70;;
7160;SDS011;3622;53.576;9.978;2022-12-10T09:22:31;14.40;;;9.13;;
7160;SDS011;3622;53.576;9.978;2022-12-10T09:24:57;18.20;;;9.50;;
7160;SDS011;3622;53.576;9.978;2022-12-10T09:27:23;19.90;;;10.20;;
7160;SDS011;3622;53.576;9.978;2022-12-10T09:29:50;14.57;;;8.60;;
7160;SDS011;3622;53.576;9.978;2022-12-10T09:32:16;18.00;;;9.43;;
7160;SDS011;3622;53.576;9.978;2022-12-10T09:34:42;17.27;;;9.43;;
7160;SDS011;3622;53.576;9.978;2022-12-10T09:37:07;20.30;;;9.70;;
7160;SDS011;3622;53.576;9.978;2022-12-10T09:39:33;15.30;;;8.97;;
7160;SDS011;3622;53.576;9.978;2022-12-10T09:42:03;14.77;;;8.40;;
7160;SDS011;3622;53.576;9.978;2022-12-10T09:47:17;13.03;;;8.47;;
7160;SDS011;3622;53.576;9.978;2022-12-10T09:49:56;14.47;;;8.20;;
7160;SDS011;3622;53.576;9.978;2022-12-10T09:52:26;14.53;;;8.30;;
7160;SDS011;3622;53.576;9.978;2022-12-10T09:54:54;11.47;;;7.20;;
7160;SDS011;3622;53.576;9.978;2022-12-10T09:57:22;13.13;;;7.97;;
7160;SDS011;3622;53.576;9.978;2022-12-10T09:59:50;14.40;;;8.50;;
7160;SDS011;3622;53.576;9.978;2022-12-10T10:04:49;15.23;;;7.90;;
7160;SDS011;3622;53.576;9.978;2022-12-10T10:07:26;12.23;;;7.50;;
7160;SDS011;3622;53.576;9.978;2022-12-10T10:10:04;13.20;;;8.23;;
7160;SDS011;3622;53.576;9.978;2022-12-10T10:12:31;10.80;;;7.40;;
7160;SDS011;3622;53.576;9.978;2022-12-10T10:14:58;12.43;;;7.10;;
7160;SDS011;3622;53.576;9.978;2022-12-10T10:17:30;15.10;;;7.83;;
7160;SDS011;3622;53.576;9.978;2022-12-10T10:19:59;13.30;;;7.93;;
7160;SDS011;3622;53.576;9.978;2022-12-10T10:22:25;14.30;;;7.83;;
7160;SDS011;3622;53.576;9.978;2022-12-10T10:24:51;16.40;;;8.50;;
7160;SDS011;3622;53.576;9.978;2022-12-10T10:27:19;12.53;;;7.27;;
7160;SDS011;3622;53.576;9.978;2022-12-10T10:29:46;10.83;;;7.40;;
7160;SDS011;3622;53.576;9.978;2022-12-10T10:32:15;9.50;;;6.70;;
7160;SDS011;3622;53.576;9.978;2022-12-10T10:34:42;12.80;;;7.47;;
7160;SDS011;3622;53.576;9.978;2022-12-10T10:37:28;9.23;;;6.63;;
7160;SDS011;3622;53.576;9.978;2022-12-10T10:39:54;16.17;;;8.37;;
7160;SDS011;3622;53.576;9.978;2022-12-10T10:42:54;15.57;;;8.27;;
7160;SDS011;3622;53.576;9.978;2022-12-10T10:48:30;13.17;;;6.87;;
7160;SDS011;3622;53.576;9.978;2022-12-10T10:53:57;16.23;;;7.53;;
7160;SDS011;3622;53.576;9.978;2022-12-10T10:58:33;15.33;;;8.63;;
7160;SDS011;3622;53.576;9.978;2022-12-10T11:01:03;12.80;;;7.87;;
7160;SDS011;3622;53.576;9.978;2022-12-10T11:03:30;11.47;;;7.17;;
7160;SDS011;3622;53.576;9.978;2022-12-10T11:05:57;14.60;;;7.80;;
7160;SDS011;3622;53.576;9.978;2022-12-10T11:08:24;11.13;;;7.77;;
7160;SDS011;3622;53.576;9.978;2022-12-10T11:10:51;14.10;;;8.00;;
7160;SDS011;3622;53.576;9.978;2022-12-10T11:13:27;9.43;;;6.73;;
7160;SDS011;3622;53.576;9.978;2022-12-10T11:16:38;8.57;;;6.50;;
7160;SDS011;3622;53.576;9.978;2022-12-10T11:18:40;27.87;;;13.83;;
7160;SDS011;3622;53.576;9.978;2022-12-10T11:21:15;14.37;;;8.60;;
7160;SDS011;3622;53.576;9.978;2022-12-10T11:23:43;35.10;;;14.80;;
7160;SDS011;3622;53.576;9.978;2022-12-10T11:33:49;22.00;;;11.60;;
7160;SDS011;3622;53.576;9.978;2022-12-10T11:41:53;12.43;;;7.57;;
7160;SDS011;3622;53.576;9.978;2022-12-10T11:49:20;10.60;;;7.07;;
7160;SDS011;3622;53.576;9.978;2022-12-10T12:17:38;11.63;;;7.30;;
7160;SDS011;3622;53.576;9.978;2022-12-10T12:20:20;11.20;;;7.03;;
7160;SDS011;3622;53.576;9.978;2022-12-10T12:22:54;11.13;;;7.17;;
7160;SDS011;3622;53.576;9.978;2022-12-10T12:25:27;13.60;;;8.00;;
7160;SDS011;3622;53.576;9.978;2022-12-10T12:30:39;17.10;;;9.70;;
7160;SDS011;3622;53.576;9.978;2022-12-10T12:33:11;15.93;;;10.10;;
7160;SDS011;3622;53.576;9.978;2022-12-10T12:43:24;15.50;;;8.93;;
7160;SDS011;3622;53.576;9.978;2022-12-10T12:45:52;14.57;;;8.93;;
7160;SDS011;3622;53.576;9.978;2022-12-10T12:48:23;13.47;;;8.00;;
7160;SDS011;3622;53.576;9.978;2022-12-10T12:53:38;23.90;;;12.10;;
7160;SDS011;3622;53.576;9.978;2022-12-10T12:58:47;12.03;;;8.00;;
7160;SDS011;3622;53.576;9.978;2022-12-10T13:03:45;17.63;;;9.33;;
7160;SDS011;3622;53.576;9.978;2022-12-10T13:06:13;18.53;;;9.33;;
7160;SDS011;3622;53.576;9.978;2022-12-10T13:08:43;12.97;;;8.80;;
7160;SDS011;3622;53.576;9.978;2022-12-10T13:13:43;16.70;;;9.80;;
7160;SDS011;3622;53.576;9.978;2022-12-10T13:24:21;41.77;;;18.83;;
7160;SDS011;3622;53.576;9.978;2022-12-10T13:33:02;15.87;;;9.70;;
7160;SDS011;3622;53.576;9.978;2022-12-10T13:37:33;16.07;;;9.10;;
7160;SDS011;3622;53.576;9.978;2022-12-10T13:42:29;14.67;;;9.53;;
7160;SDS011;3622;53.576;9.978;2022-12-10T13:47:51;14.17;;;8.73;;
7160;SDS011;3622;53.576;9.978;2022-12-10T13:58:22;12.03;;;8.17;;
7160;SDS011;3622;53.576;9.978;2022-12-10T14:06:22;15.70;;;8.90;;
7160;SDS011;3622;53.576;9.978;2022-12-10T14:09:22;33.70;;;15.70;;
7160;SDS011;3622;53.576;9.978;2022-12-10T14:12:02;15.53;;;8.93;;
7160;SDS011;3622;53.576;9.978;2022-12-10T14:14:37;20.97;;;11.10;;
7160;SDS011;3622;53.576;9.978;2022-12-10T14:18:08;17.50;;;10.33;;
7160;SDS011;3622;53.576;9.978;2022-12-10T14:19:59;17.40;;;10.00;;
7160;SDS011;3622;53.576;9.978;2022-12-10T14:22:29;11.83;;;8.20;;
7160;SDS011;3622;53.576;9.978;2022-12-10T14:24:58;10.97;;;7.30;;
7160;SDS011;3622;53.576;9.978;2022-12-10T14:27:25;12.07;;;8.00;;
7160;SDS011;3622;53.576;9.978;2022-12-10T14:29:53;14.67;;;9.20;;
7160;SDS011;3622;53.576;9.978;2022-12-10T14:32:23;14.80;;;8.50;;
7160;SDS011;3622;53.576;9.978;2022-12-10T14:34:54;14.67;;;8.90;;
7160;SDS011;3622;53.576;9.978;2022-12-10T14:37:22;15.10;;;8.83;;
7160;SDS011;3622;53.576;9.978;2022-12-10T14:39:49;15.47;;;9.13;;
7160;SDS011;3622;53.576;9.978;2022-12-10T14:42:15;17.30;;;9.87;;
7160;SDS011;3622;53.576;9.978;2022-12-10T14:44:41;15.07;;;9.80;;
7160;SDS011;3622;53.576;9.978;2022-12-10T14:47:16;14.33;;;9.03;;
7160;SDS011;3622;53.576;9.978;2022-12-10T14:49:46;18.83;;;10.90;;
7160;SDS011;3622;53.576;9.978;2022-12-10T14:52:14;16.37;;;9.63;;
7160;SDS011;3622;53.576;9.978;2022-12-10T14:54:40;17.43;;;9.40;;
7160;SDS011;3622;53.576;9.978;2022-12-10T14:57:08;14.17;;;9.10;;
7160;SDS011;3622;53.576;9.978;2022-12-10T15:02:02;16.30;;;9.60;;
7160;SDS011;3622;53.576;9.978;2022-12-10T15:04:41;16.60;;;9.70;;
7160;SDS011;3622;53.576;9.978;2022-12-10T15:07:11;12.50;;;8.70;;
7160;SDS011;3622;53.576;9.978;2022-12-10T15:09:39;14.80;;;8.47;;
7160;SDS011;3622;53.576;9.978;2022-12-10T15:12:05;14.97;;;8.47;;
7160;SDS011;3622;53.576;9.978;2022-12-10T15:14:31;16.40;;;9.27;;
7160;SDS011;3622;53.576;9.978;2022-12-10T15:16:57;17.57;;;9.70;;
7160;SDS011;3622;53.576;9.978;2022-12-10T15:19:25;13.93;;;8.47;;
7160;SDS011;3622;53.576;9.978;2022-12-10T15:22:01;19.20;;;10.40;;
7160;SDS011;3622;53.576;9.978;2022-12-10T15:24:32;15.47;;;10.03;;
7160;SDS011;3622;53.576;9.978;2022-12-10T15:27:00;14.97;;;10.03;;
7160;SDS011;3622;53.576;9.978;2022-12-10T15:29:29;14.50;;;9.87;;
7160;SDS011;3622;53.576;9.978;2022-12-10T15:31:58;17.17;;;9.60;;
7160;SDS011;3622;53.576;9.978;2022-12-10T15:34:28;14.80;;;9.20;;
7160;SDS011;3622;53.576;9.978;2022-12-10T15:36:55;18.73;;;9.43;;
7160;SDS011;3622;53.576;9.978;2022-12-10T15:39:25;19.27;;;9.70;;
7160;SDS011;3622;53.576;9.978;2022-12-10T15:41:53;14.73;;;9.10;;
7160;SDS011;3622;53.576;9.978;2022-12-10T15:44:27;20.73;;;10.60;;
7160;SDS011;3622;53.576;9.978;2022-12-10T15:49:34;15.10;;;9.53;;
7160;SDS011;3622;53.576;9.978;2022-12-10T15:52:00;19.70;;;11.30;;
7160;SDS011;3622;53.576;9.978;2022-12-10T15:54:28;16.13;;;9.70;;
7160;SDS011;3622;53.576;9.978;2022-12-10T15:56:57;16.60;;;9.50;;
7160;SDS011;3622;53.576;9.978;2022-12-10T15:59:23;22.20;;;11.70;;
7160;SDS011;3622;53.576;9.978;2022-12-10T16:01:49;17.90;;;10.50;;
7160;SDS011;3622;53.576;9.978;2022-12-10T16:04:15;19.23;;;10.20;;
7160;SDS011;3622;53.576;9.978;2022-12-10T16:06:41;17.03;;;10.00;;
7160;SDS011;3622;53.576;9.978;2022-12-10T16:09:10;16.77;;;10.27;;
7160;SDS011;3622;53.576;9.978;2022-12-10T16:11:36;23.70;;;11.23;;
7160;SDS011;3622;53.576;9.978;2022-12-10T16:14:02;19.13;;;10.70;;
7160;SDS011;3622;53.576;9.978;2022-12-10T16:16:28;19.73;;;10.30;;
7160;SDS011;3622;53.576;9.978;2022-12-10T16:18:54;21.73;;;11.47;;
7160;SDS011;3622;53.576;9.978;2022-12-10T16:21:20;18.80;;;10.23;;
7160;SDS011;3622;53.576;9.978;2022-12-10T16:23:47;19.67;;;11.20;;
7160;SDS011;3622;53.576;9.978;2022-12-10T16:26:17;21.43;;;10.77;;
7160;SDS011;3622;53.576;9.978;2022-12-10T16:28:44;20.27;;;10.67;;
7160;SDS011;3622;53.576;9.978;2022-12-10T16:31:11;20.73;;;10.43;;
7160;SDS011;3622;53.576;9.978;2022-12-10T16:33:38;18.40;;;9.77;;
7160;SDS011;3622;53.576;9.978;2022-12-10T16:36:04;21.17;;;10.77;;
7160;SDS011;3622;53.576;9.978;2022-12-10T16:38:30;20.00;;;10.23;;
7160;SDS011;3622;53.576;9.978;2022-12-10T16:41:00;22.10;;;10.03;;
7160;SDS011;3622;53.576;9.978;2022-12-10T16:43:27;18.63;;;10.10;;
7160;SDS011;3622;53.576;9.978;2022-12-10T16:45:53;22.90;;;10.93;;
7160;SDS011;3622;53.576;9.978;2022-12-10T16:48:20;44.03;;;11.90;;
7160;SDS011;3622;53.576;9.978;2022-12-10T16:50:47;23.60;;;10.47;;
7160;SDS011;3622;53.576;9.978;2022-12-10T16:53:21;53.47;;;16.33;;
7160;SDS011;3622;53.576;9.978;2022-12-10T16:55:48;22.13;;;10.87;;
7160;SDS011;3622;53.576;9.978;2022-12-10T16:58:14;24.83;;;11.33;;
7160;SDS011;3622;53.576;9.978;2022-12-10T17:00:41;24.30;;;11.20;;
7160;SDS011;3622;53.576;9.978;2022-12-10T17:03:09;21.83;;;11.10;;
7160;SDS011;3622;53.576;9.978;2022-12-10T17:05:40;24.83;;;11.47;;
7160;SDS011;3622;53.576;9.978;2022-12-10T17:08:07;19.63;;;10.57;;
7160;SDS011;3622;53.576;9.978;2022-12-10T17:10:33;20.20;;;10.77;;
7160;SDS011;3622;53.576;9.978;2022-12-10T17:13:18;20.47;;;10.20;;